Pontiac, South Carolina
Current Conditions -  °F | °C
As of 11:35 AM on Sunday 25 Jan 2015 (Local Time) from KCDN Reporting Station
Clear Clear  
Wind Chill:   Ceiling: Unl
Heat Index:   Visibility: 10mi
Dew Point: -1°   Wind: 7mph
Humidity: 50%   Direction: 220°SW
Pressure: 29.98"   Gusts: NA
Location:  34.1767°N, 80.8184°W
Report Text: KCDN 251635Z AUTO 22006KT 10SM CLR 09/M01 A2998 RMK AO2 TSNO
Loading
Personal Weather Stations






























Interactive Weather Map New forecast layout! Learn more

10-Day Weather Forecast

Advertisements
Track Severe Weather on mobile